Time;durP1;ratioP1;P1;durP2;ratioP2;P2;SDS_P1;SDS_P2;PMS_P1;PMS_P2;Temp;Humidity;BMP_temperature;BMP_pressure;BME280_temperature;BME280_humidity;BME280_pressure;Samples;Min_cycle;Max_cycle;Signal;HPM_P1;HPM_P2
2021/12/03 00:01:12;;;;;;;28.42;19.17;;;1.10;88.20;;;;;;5037599;28;20084;-79
2021/12/03 00:03:38;;;;;;;28.50;17.98;;;1.10;88.80;;;;;;5038982;28;20029;-79
2021/12/03 00:06:05;;;;;;;29.08;17.60;;;1.10;88.20;;;;;;5038811;28;20029;-79
2021/12/03 00:08:31;;;;;;;28.95;17.75;;;1.10;88.20;;;;;;5038908;28;20009;-79
2021/12/03 00:11:00;;;;;;;35.75;17.92;;;1.10;88.20;;;;;;5038639;28;20457;-79
2021/12/03 00:13:28;;;;;;;32.58;18.15;;;1.00;88.20;;;;;;5038682;28;20013;-79
2021/12/03 00:15:55;;;;;;;26.42;17.40;;;1.00;88.40;;;;;;5038623;28;20021;-79
2021/12/03 00:18:21;;;;;;;34.40;16.92;;;1.10;88.70;;;;;;5038847;28;20014;-79
2021/12/03 00:20:47;;;;;;;26.88;15.95;;;1.10;88.90;;;;;;5038656;28;20071;-80
2021/12/03 00:23:13;;;;;;;25.95;15.57;;;1.10;89.10;;;;;;5038575;28;20021;-80
2021/12/03 00:25:40;;;;;;;23.92;16.10;;;1.20;89.20;;;;;;5038497;28;20048;-80
2021/12/03 00:28:06;;;;;;;24.88;16.73;;;1.30;89.30;;;;;;5038221;28;20030;-80
2021/12/03 00:30:33;;;;;;;23.25;14.90;;;1.30;89.30;;;;;;5038668;28;20056;-79
2021/12/03 00:32:59;;;;;;;26.13;15.15;;;1.40;89.30;;;;;;5038317;28;20022;-80
2021/12/03 00:35:25;;;;;;;22.20;14.40;;;1.40;89.40;;;;;;5038477;28;20033;-80
2021/12/03 00:37:52;;;;;;;20.77;14.35;;;1.40;89.30;;;;;;5038327;28;20041;-79
2021/12/03 00:40:25;;;;;;;26.83;15.80;;;1.40;89.30;;;;;;5038299;28;20480;-80
2021/12/03 00:42:51;;;;;;;23.45;14.68;;;1.40;89.10;;;;;;5037931;28;20032;-80
2021/12/03 00:45:18;;;;;;;22.73;15.25;;;1.40;89.10;;;;;;5037099;28;20033;-81
2021/12/03 00:47:44;;;;;;;27.13;18.08;;;1.30;89.50;;;;;;5038143;28;20452;-80
2021/12/03 00:50:16;;;;;;;26.42;17.15;;;1.30;88.90;;;;;;5038319;28;20022;-81
2021/12/03 00:52:42;;;;;;;30.27;18.65;;;1.30;89.00;;;;;;5036427;28;20116;-81
2021/12/03 00:55:08;;;;;;;36.80;20.08;;;1.30;89.20;;;;;;5037765;28;20057;-80
2021/12/03 00:57:35;;;;;;;32.47;19.40;;;1.40;89.30;;;;;;5038062;28;20108;-81
2021/12/03 01:00:02;;;;;;;34.60;18.70;;;1.40;89.30;;;;;;5037932;28;20025;-81
2021/12/03 01:02:28;;;;;;;26.42;16.75;;;1.40;89.30;;;;;;5037773;28;20029;-81
2021/12/03 01:04:54;;;;;;;30.77;16.13;;;1.40;89.30;;;;;;5037966;28;20057;-81
2021/12/03 01:07:19;;;;;;;29.30;17.23;;;1.40;89.40;;;;;;5037681;28;20014;-81
2021/12/03 01:09:45;;;;;;;26.20;15.52;;;1.50;89.40;;;;;;5037851;28;20030;-81
2021/12/03 01:12:12;;;;;;;22.80;14.18;;;1.50;89.60;;;;;;5037582;28;20028;-81
2021/12/03 01:14:39;;;;;;;23.38;14.57;;;1.50;89.70;;;;;;5037607;28;20044;-81
2021/12/03 01:17:06;;;;;;;22.90;14.45;;;1.50;89.70;;;;;;5037819;28;20029;-81
2021/12/03 01:19:32;;;;;;;23.35;14.07;;;1.60;90.00;;;;;;5037935;28;20033;-81
2021/12/03 01:21:58;;;;;;;22.83;14.55;;;1.60;90.20;;;;;;5037435;28;20388;-80
2021/12/03 01:24:24;;;;;;;31.88;18.35;;;1.60;90.20;;;;;;5037583;28;20065;-80
2021/12/03 01:26:54;;;;;;;40.75;19.88;;;1.70;90.00;;;;;;5037560;28;20028;-80
2021/12/03 01:29:20;;;;;;;31.25;18.90;;;1.70;90.00;;;;;;5037475;28;20026;-79
2021/12/03 01:31:46;;;;;;;27.60;17.70;;;1.70;90.00;;;;;;5037385;28;20037;-79
2021/12/03 01:34:14;;;;;;;26.10;17.52;;;1.80;90.00;;;;;;5037469;28;20033;-79
2021/12/03 01:36:40;;;;;;;25.85;16.52;;;1.80;90.00;;;;;;5037554;28;20029;-79
2021/12/03 01:39:07;;;;;;;22.95;15.65;;;1.80;90.00;;;;;;5017593;28;20110;-79
2021/12/03 01:41:33;;;;;;;21.10;15.48;;;1.90;90.10;;;;;;5017806;28;20034;-79
2021/12/03 01:44:02;;;;;;;20.80;14.43;;;1.90;90.10;;;;;;5017246;28;20037;-79
2021/12/03 01:46:30;;;;;;;17.58;11.52;;;1.90;90.10;;;;;;5017406;28;20101;-79
2021/12/03 01:48:56;;;;;;;15.25;10.95;;;2.00;90.10;;;;;;5016329;28;20400;-79
2021/12/03 01:51:23;;;;;;;13.95;8.50;;;2.00;90.10;;;;;;5017751;28;20105;-78
2021/12/03 01:53:49;;;;;;;9.07;5.53;;;2.10;90.30;;;;;;5017365;28;20473;-78
2021/12/03 01:56:17;;;;;;;11.18;5.32;;;2.10;90.70;;;;;;5017386;28;20034;-78
2021/12/03 01:58:47;;;;;;;7.05;4.18;;;2.20;91.20;;;;;;5017246;28;20022;-78
2021/12/03 02:01:16;;;;;;;6.82;3.17;;;2.40;92.00;;;;;;5017551;28;20117;-78
2021/12/03 02:03:45;;;;;;;9.43;3.78;;;2.50;92.60;;;;;;5017433;28;20018;-78
2021/12/03 02:06:13;;;;;;;8.00;3.53;;;2.70;93.20;;;;;;5020918;28;20029;-78
2021/12/03 02:08:40;;;;;;;8.70;3.05;;;2.80;93.80;;;;;;5021311;28;20109;-78
2021/12/03 02:11:07;;;;;;;6.32;3.53;;;2.90;94.10;;;;;;5021237;28;20014;-77
2021/12/03 02:13:33;;;;;;;8.60;3.42;;;3.00;94.30;;;;;;5021232;28;20024;-78
2021/12/03 02:15:59;;;;;;;5.90;3.00;;;3.20;94.60;;;;;;5020000;28;20029;-77
2021/12/03 02:18:25;;;;;;;7.15;3.10;;;3.30;94.70;;;;;;5019908;28;20030;-78
2021/12/03 02:20:53;;;;;;;5.95;2.80;;;3.30;94.80;;;;;;5021202;28;20022;-78
2021/12/03 02:23:20;;;;;;;7.15;3.40;;;3.40;94.90;;;;;;5019803;28;20034;-78
2021/12/03 02:25:46;;;;;;;5.85;3.17;;;3.50;94.90;;;;;;5021169;28;20018;-78
2021/12/03 02:28:14;;;;;;;7.40;3.50;;;3.50;94.90;;;;;;5020706;28;20050;-78
2021/12/03 02:30:41;;;;;;;8.18;3.10;;;3.60;94.90;;;;;;5021224;28;20044;-78
2021/12/03 02:33:07;;;;;;;8.07;2.78;;;3.60;94.90;;;;;;5020906;28;20044;-78
2021/12/03 02:35:34;;;;;;;5.53;2.97;;;3.70;94.90;;;;;;5019707;28;20038;-78
2021/12/03 02:38:00;;;;;;;4.43;2.50;;;3.70;94.80;;;;;;5031676;28;20045;-78
2021/12/03 02:40:26;;;;;;;6.45;2.75;;;3.70;94.70;;;;;;5040562;28;20089;-78
2021/12/03 02:42:53;;;;;;;4.47;2.30;;;3.80;94.70;;;;;;5038992;28;20083;-78
2021/12/03 02:45:19;;;;;;;6.25;2.80;;;3.80;94.60;;;;;;5039127;28;20537;-77
2021/12/03 02:47:46;;;;;;;4.22;2.65;;;3.80;94.60;;;;;;5040505;28;20484;-77
2021/12/03 02:50:14;;;;;;;4.75;2.30;;;3.90;94.50;;;;;;5040579;28;20022;-77
2021/12/03 02:52:41;;;;;;;5.88;2.85;;;3.90;94.40;;;;;;5040309;28;20049;-77
2021/12/03 02:55:08;;;;;;;3.78;2.00;;;3.90;94.30;;;;;;5040345;28;20111;-77
2021/12/03 02:57:34;;;;;;;5.22;2.63;;;3.90;94.00;;;;;;5040239;28;20041;-76
2021/12/03 03:00:00;;;;;;;3.95;2.03;;;3.90;93.80;;;;;;5040184;28;20037;-76
2021/12/03 03:02:26;;;;;;;4.70;2.38;;;3.90;93.60;;;;;;5040017;28;20046;-76
2021/12/03 03:04:52;;;;;;;5.43;2.50;;;4.00;93.40;;;;;;5040223;28;20105;-77
2021/12/03 03:07:18;;;;;;;4.55;2.25;;;3.90;93.20;;;;;;5040111;28;20021;-76
2021/12/03 03:09:45;;;;;;;3.88;2.03;;;4.00;93.10;;;;;;5039997;28;20032;-76
2021/12/03 03:12:13;;;;;;;4.72;2.15;;;4.00;93.00;;;;;;5040113;28;20082;-76
2021/12/03 03:14:47;;;;;;;4.30;2.50;;;4.00;92.90;;;;;;5039797;28;20025;-76
2021/12/03 03:17:13;;;;;;;4.88;2.92;;;4.00;92.70;;;;;;5039162;28;20031;-76
2021/12/03 03:19:39;;;;;;;6.63;3.60;;;4.00;92.70;;;;;;5039866;28;20033;-77
2021/12/03 03:22:05;;;;;;;9.98;3.40;;;4.10;92.70;;;;;;5039656;28;20452;-76
2021/12/03 03:24:31;;;;;;;5.75;2.88;;;4.10;92.60;;;;;;5039686;28;20468;-75
2021/12/03 03:26:57;;;;;;;6.22;2.90;;;4.10;92.70;;;;;;5039612;28;20014;-76
2021/12/03 03:29:23;;;;;;;5.80;2.72;;;4.10;92.60;;;;;;5039534;28;20052;-76
2021/12/03 03:31:49;;;;;;;6.47;2.53;;;4.20;92.70;;;;;;5039405;28;20021;-75
2021/12/03 03:34:15;;;;;;;5.57;2.17;;;4.20;92.70;;;;;;5039648;28;20025;-76
2021/12/03 03:36:44;;;;;;;5.20;2.55;;;4.20;92.60;;;;;;5039351;28;20029;-77
2021/12/03 03:39:13;;;;;;;5.82;3.42;;;4.20;92.70;;;;;;5039625;28;20140;-75
2021/12/03 03:41:40;;;;;;;6.95;3.60;;;4.30;92.60;;;;;;5039237;28;20032;-76
2021/12/03 03:44:07;;;;;;;8.43;4.82;;;4.30;92.50;;;;;;5039036;28;20109;-76
2021/12/03 03:46:33;;;;;;;9.75;4.75;;;4.30;92.40;;;;;;5039181;28;20025;-76
2021/12/03 03:48:59;;;;;;;8.43;4.80;;;4.30;92.40;;;;;;5038077;28;20643;-76
2021/12/03 03:51:25;;;;;;;6.90;3.10;;;4.30;92.40;;;;;;5039048;28;20030;-76
2021/12/03 03:53:51;;;;;;;5.53;2.90;;;4.30;92.40;;;;;;5039381;28;20099;-76
2021/12/03 03:56:17;;;;;;;5.13;2.20;;;4.40;92.40;;;;;;5039015;28;20021;-76
2021/12/03 03:58:43;;;;;;;4.25;1.67;;;4.40;92.50;;;;;;5039068;28;20087;-76
2021/12/03 04:01:11;;;;;;;4.35;2.08;;;4.40;92.60;;;;;;5038903;28;20026;-77
2021/12/03 04:03:37;;;;;;;3.42;1.80;;;4.50;92.80;;;;;;5039127;28;20018;-76
2021/12/03 04:06:02;;;;;;;4.32;1.88;;;4.50;92.90;;;;;;5038880;28;20022;-77
2021/12/03 04:08:29;;;;;;;4.75;1.65;;;4.50;93.00;;;;;;5037662;28;20021;-77
2021/12/03 04:10:59;;;;;;;4.13;1.90;;;4.60;93.20;;;;;;5038657;28;20013;-77
2021/12/03 04:13:26;;;;;;;4.88;2.10;;;4.60;93.30;;;;;;5037289;28;20025;-77
2021/12/03 04:15:52;;;;;;;4.30;2.10;;;4.60;93.30;;;;;;5038699;28;20083;-77
2021/12/03 04:18:17;;;;;;;4.50;2.35;;;4.70;93.30;;;;;;5038769;28;20029;-76
2021/12/03 04:20:44;;;;;;;6.25;2.50;;;4.70;93.40;;;;;;5038617;28;20060;-77
2021/12/03 04:23:12;;;;;;;7.53;2.63;;;4.80;93.50;;;;;;5038664;28;20044;-77
2021/12/03 04:25:38;;;;;;;4.80;2.45;;;4.80;93.50;;;;;;5037343;28;20497;-76
2021/12/03 04:28:04;;;;;;;6.85;2.70;;;4.80;93.60;;;;;;5037419;28;20021;-76
2021/12/03 04:30:30;;;;;;;6.20;2.70;;;4.80;93.60;;;;;;5038416;28;20029;-76
2021/12/03 04:32:57;;;;;;;6.88;2.85;;;4.90;93.60;;;;;;5037072;28;20079;-76
2021/12/03 04:35:25;;;;;;;5.22;2.58;;;4.90;93.60;;;;;;5038284;28;20079;-76
2021/12/03 04:37:51;;;;;;;4.38;2.38;;;4.90;93.60;;;;;;5038366;28;20042;-77
2021/12/03 04:40:19;;;;;;;6.75;2.20;;;4.90;93.50;;;;;;5038134;28;20060;-77
2021/12/03 04:42:45;;;;;;;4.97;2.38;;;4.90;93.50;;;;;;5038007;28;20124;-76
2021/12/03 04:45:14;;;;;;;6.25;3.60;;;4.90;93.50;;;;;;5036771;28;20022;-77
2021/12/03 04:47:40;;;;;;;8.18;2.50;;;4.90;93.50;;;;;;5038285;28;20068;-76
2021/12/03 04:50:08;;;;;;;6.28;3.40;;;4.90;93.50;;;;;;5036877;28;20481;-77
2021/12/03 04:52:34;;;;;;;7.85;2.90;;;4.90;93.60;;;;;;5038076;28;20029;-76
2021/12/03 04:55:00;;;;;;;7.32;2.72;;;4.90;93.50;;;;;;5038038;28;20040;-77
2021/12/03 04:57:25;;;;;;;4.88;2.13;;;4.90;93.50;;;;;;5038006;28;20025;-76
2021/12/03 04:59:51;;;;;;;7.20;3.30;;;5.00;93.50;;;;;;5038204;28;20029;-76
2021/12/03 05:02:19;;;;;;;6.82;2.83;;;5.00;93.50;;;;;;5037727;28;20022;-77
2021/12/03 05:04:47;;;;;;;7.75;3.22;;;5.00;93.60;;;;;;5038080;28;20033;-77
2021/12/03 05:07:28;;;;;;;6.53;3.17;;;5.00;93.60;;;;;;5038021;28;20026;-76
2021/12/03 05:09:55;;;;;;;7.90;2.90;;;5.00;93.60;;;;;;5037709;28;20480;-77
2021/12/03 05:12:21;;;;;;;6.05;3.13;;;5.00;93.60;;;;;;5037695;28;20025;-77
2021/12/03 05:14:47;;;;;;;6.70;3.13;;;5.00;93.70;;;;;;5043166;28;20029;-76
2021/12/03 05:17:13;;;;;;;5.63;2.80;;;5.00;93.70;;;;;;5054115;28;20025;-76
2021/12/03 05:19:38;;;;;;;6.78;2.60;;;5.00;93.70;;;;;;5037749;28;20037;-77
2021/12/03 05:22:05;;;;;;;7.70;3.10;;;5.10;94.00;;;;;;5041220;28;20286;-77
2021/12/03 05:24:30;;;;;;;8.30;3.70;;;5.00;93.70;;;;;;5037637;28;20113;-76
2021/12/03 05:26:56;;;;;;;11.52;4.93;;;5.00;93.70;;;;;;5037646;28;20017;-76
2021/12/03 05:29:22;;;;;;;9.38;3.97;;;5.00;93.80;;;;;;5037524;28;20053;-77
2021/12/03 05:31:48;;;;;;;12.43;4.78;;;5.00;93.80;;;;;;5037504;28;20049;-78
2021/12/03 05:34:16;;;;;;;5.80;3.22;;;5.00;93.80;;;;;;5037541;28;20417;-78
2021/12/03 05:36:43;;;;;;;8.25;3.55;;;5.10;93.90;;;;;;5037301;28;20017;-70
2021/12/03 05:39:09;;;;;;;8.00;3.08;;;5.10;94.00;;;;;;5037028;28;20034;-74
2021/12/03 05:41:35;;;;;;;6.57;2.97;;;5.10;94.10;;;;;;5035912;28;20041;-76
2021/12/03 05:44:03;;;;;;;6.97;3.38;;;5.10;94.10;;;;;;5036951;28;20021;-77
2021/12/03 05:46:29;;;;;;;8.10;3.35;;;5.10;94.20;;;;;;5037272;28;20018;-80
2021/12/03 05:48:55;;;;;;;7.25;3.50;;;5.10;94.20;;;;;;5037498;28;20025;-75
2021/12/03 05:51:21;;;;;;;8.25;4.28;;;5.20;94.20;;;;;;5037272;28;20109;-75
2021/12/03 05:53:47;;;;;;;7.13;4.07;;;5.20;94.40;;;;;;5037284;28;20017;-74
2021/12/03 05:56:13;;;;;;;6.10;4.13;;;5.20;94.40;;;;;;5037362;28;20024;-80
2021/12/03 05:58:39;;;;;;;12.23;4.57;;;5.20;94.30;;;;;;5035838;28;20025;-82
2021/12/03 06:01:05;;;;;;;7.00;3.95;;;5.20;94.40;;;;;;5036101;28;20033;-75
2021/12/03 06:03:31;;;;;;;7.90;4.20;;;5.20;94.50;;;;;;5037043;28;20144;-82
2021/12/03 06:05:56;;;;;;;6.20;4.05;;;5.20;94.50;;;;;;5037142;28;20022;-76
2021/12/03 06:08:22;;;;;;;8.10;4.25;;;5.20;94.50;;;;;;5037165;28;20119;-76
2021/12/03 06:10:48;;;;;;;8.00;3.78;;;5.20;94.60;;;;;;5036928;28;20022;-76
2021/12/03 06:13:14;;;;;;;8.48;4.05;;;5.30;94.70;;;;;;5036573;28;20029;-78
2021/12/03 06:15:40;;;;;;;6.95;3.42;;;5.30;94.70;;;;;;5036930;28;20048;-79
2021/12/03 06:18:06;;;;;;;6.07;3.42;;;5.30;94.80;;;;;;5036593;28;20038;-79
2021/12/03 06:20:33;;;;;;;7.22;4.20;;;5.30;94.80;;;;;;5036469;28;20025;-79
2021/12/03 06:22:58;;;;;;;9.25;4.10;;;5.30;94.80;;;;;;5030560;28;20480;-79
2021/12/03 06:25:24;;;;;;;18.25;8.80;;;5.30;94.80;;;;;;5036608;28;20024;-79
2021/12/03 06:27:50;;;;;;;9.15;5.60;;;5.40;94.90;;;;;;5036494;28;20040;-79
2021/12/03 06:30:20;;;;;;;7.30;4.68;;;5.40;95.00;;;;;;5035498;28;20049;-78
2021/12/03 06:32:46;;;;;;;8.35;3.75;;;5.30;94.90;;;;;;5036619;28;20025;-78
2021/12/03 06:35:16;;;;;;;7.45;4.20;;;5.40;94.90;;;;;;5036322;28;20040;-78
2021/12/03 06:37:42;;;;;;;7.65;4.10;;;5.40;95.30;;;;;;5035273;28;20132;-79
2021/12/03 06:40:12;;;;;;;11.55;4.60;;;5.40;95.10;;;;;;5036359;28;20068;-79
2021/12/03 06:42:38;;;;;;;10.30;3.67;;;5.50;95.20;;;;;;5036465;28;20034;-81
2021/12/03 06:45:08;;;;;;;7.60;4.38;;;5.50;95.30;;;;;;5036821;28;20041;-79
2021/12/03 06:47:35;;;;;;;8.18;4.35;;;5.50;95.40;;;;;;5036533;28;20022;-80
2021/12/03 06:50:03;;;;;;;8.55;4.57;;;5.60;95.50;;;;;;5035169;28;20049;-78
2021/12/03 06:52:30;;;;;;;7.50;4.28;;;5.60;95.50;;;;;;5038507;28;20037;-77
2021/12/03 06:54:59;;;;;;;10.38;4.45;;;5.60;95.50;;;;;;5040096;28;20032;-77
2021/12/03 06:57:24;;;;;;;8.00;4.65;;;5.60;95.60;;;;;;5037931;28;20059;-77
2021/12/03 06:59:50;;;;;;;8.32;4.20;;;5.60;95.60;;;;;;5039408;28;20053;-77
2021/12/03 07:02:16;;;;;;;8.55;4.80;;;5.70;95.60;;;;;;5040000;28;20029;-77
2021/12/03 07:04:44;;;;;;;8.93;5.07;;;5.70;95.60;;;;;;5039739;28;20021;-77
2021/12/03 07:07:10;;;;;;;9.20;4.90;;;5.70;95.70;;;;;;5039465;28;20037;-77
2021/12/03 07:09:37;;;;;;;8.98;4.63;;;5.70;95.60;;;;;;5040142;28;20018;-77
2021/12/03 07:12:03;;;;;;;8.85;4.80;;;5.70;95.60;;;;;;5040120;28;20037;-78
2021/12/03 07:14:29;;;;;;;7.00;4.65;;;5.70;95.60;;;;;;5039706;28;20034;-77
2021/12/03 07:16:54;;;;;;;8.20;4.97;;;5.70;95.70;;;;;;5040263;28;20029;-78
2021/12/03 07:19:20;;;;;;;7.95;5.47;;;5.70;95.70;;;;;;5040196;28;20025;-78
2021/12/03 07:21:46;;;;;;;10.48;5.93;;;5.70;95.80;;;;;;5039698;28;20042;-78
2021/12/03 07:24:12;;;;;;;8.75;5.22;;;5.70;95.70;;;;;;5039711;28;20026;-77
2021/12/03 07:26:38;;;;;;;7.88;5.22;;;5.80;96.10;;;;;;5039748;28;20072;-77
2021/12/03 07:29:04;;;;;;;8.30;5.35;;;5.80;95.80;;;;;;5039664;28;20469;-77
2021/12/03 07:31:30;;;;;;;8.27;5.60;;;5.80;96.00;;;;;;5040116;28;20033;-77
2021/12/03 07:33:56;;;;;;;13.30;6.47;;;5.80;96.00;;;;;;5039551;28;20481;-78
2021/12/03 07:36:22;;;;;;;9.93;6.25;;;5.80;96.10;;;;;;5039491;28;20495;-78
2021/12/03 07:38:48;;;;;;;14.07;6.75;;;5.80;96.20;;;;;;5039311;28;20046;-77
2021/12/03 07:41:14;;;;;;;9.82;7.00;;;5.90;96.30;;;;;;5039418;28;20022;-78
2021/12/03 07:43:40;;;;;;;8.20;5.78;;;5.90;96.30;;;;;;5039211;28;20075;-77
2021/12/03 07:46:06;;;;;;;11.43;7.20;;;5.90;96.40;;;;;;5038056;28;20025;-77
2021/12/03 07:48:32;;;;;;;13.32;7.68;;;5.90;96.40;;;;;;5039284;28;20018;-78
2021/12/03 07:50:58;;;;;;;11.98;7.57;;;5.90;96.50;;;;;;5039363;28;20052;-78
2021/12/03 07:53:24;;;;;;;13.65;7.32;;;5.90;96.50;;;;;;5037972;28;20449;-77
2021/12/03 07:55:51;;;;;;;11.15;6.60;;;6.00;96.60;;;;;;5039146;28;20029;-78
2021/12/03 07:58:18;;;;;;;10.32;6.63;;;6.00;96.60;;;;;;5039101;28;20105;-78
2021/12/03 08:00:45;;;;;;;8.82;6.28;;;6.10;96.70;;;;;;5039117;28;20030;-78
2021/12/03 08:03:12;;;;;;;10.43;6.53;;;6.10;96.70;;;;;;5038844;28;20025;-78
2021/12/03 08:05:38;;;;;;;12.00;6.72;;;6.10;96.80;;;;;;5039054;28;20037;-78
2021/12/03 08:08:05;;;;;;;11.48;8.02;;;6.20;96.80;;;;;;5039055;28;20460;-78
2021/12/03 08:10:34;;;;;;;10.30;6.85;;;6.20;96.90;;;;;;5038831;28;20021;-79
2021/12/03 08:13:01;;;;;;;14.57;8.75;;;6.20;97.00;;;;;;5037595;28;20037;-79
2021/12/03 08:15:26;;;;;;;24.38;11.55;;;6.30;97.10;;;;;;5039094;28;20112;-79
2021/12/03 08:17:52;;;;;;;19.33;10.82;;;6.30;97.20;;;;;;5038840;28;20057;-77
2021/12/03 08:20:18;;;;;;;11.57;6.90;;;6.40;97.20;;;;;;5038846;28;20021;-79
2021/12/03 08:22:44;;;;;;;8.77;5.13;;;6.40;97.20;;;;;;5037215;28;20033;-77
2021/12/03 08:25:11;;;;;;;7.18;4.80;;;6.40;97.30;;;;;;5038495;28;20100;-79
2021/12/03 08:27:37;;;;;;;7.82;5.90;;;6.50;97.30;;;;;;5038427;28;20021;-77
2021/12/03 08:30:05;;;;;;;9.80;5.88;;;6.50;97.30;;;;;;5038571;28;20056;-77
2021/12/03 08:32:31;;;;;;;8.77;5.70;;;6.60;97.40;;;;;;5038592;28;20021;-77
2021/12/03 08:34:57;;;;;;;8.32;6.18;;;6.60;97.50;;;;;;5038696;28;20456;-78
2021/12/03 08:37:23;;;;;;;8.07;5.35;;;6.70;97.50;;;;;;5038388;28;20052;-78
2021/12/03 08:39:49;;;;;;;8.35;4.43;;;6.70;97.50;;;;;;5038233;28;20025;-78
2021/12/03 08:42:15;;;;;;;7.13;4.82;;;6.70;97.50;;;;;;5038302;28;20156;-77
2021/12/03 08:44:41;;;;;;;6.47;4.55;;;6.80;97.60;;;;;;5038086;28;20022;-76
2021/12/03 08:47:07;;;;;;;8.35;4.47;;;6.80;97.60;;;;;;5038326;28;20025;-77
2021/12/03 08:49:46;;;;;;;6.53;3.88;;;7.00;97.80;;;;;;5038265;28;20053;-78
2021/12/03 08:54:54;;;;;;;5.88;3.50;;;7.10;98.00;;;;;;5038033;28;20037;-77
2021/12/03 08:57:32;;;;;;;5.10;3.28;;;7.20;98.00;;;;;;5037721;28;20017;-77
2021/12/03 09:00:05;;;;;;;7.65;3.58;;;7.30;98.10;;;;;;5038151;28;20025;-77
2021/12/03 09:02:31;;;;;;;6.18;4.47;;;7.30;98.10;;;;;;5036454;28;20025;-77
2021/12/03 09:04:57;;;;;;;6.20;4.07;;;7.40;98.10;;;;;;5037950;28;20448;-78
2021/12/03 09:07:23;;;;;;;6.05;3.90;;;7.40;98.10;;;;;;5037985;28;20091;-78
2021/12/03 09:09:48;;;;;;;7.55;4.00;;;7.50;98.30;;;;;;5037889;28;20025;-79
2021/12/03 09:12:15;;;;;;;7.07;4.20;;;7.60;98.40;;;;;;5036240;28;20492;-77
2021/12/03 09:25:12;;;;;;;5.80;3.53;;;8.00;98.70;;;;;;5037351;28;20087;-77
2021/12/03 09:27:37;;;;;;;5.00;3.40;;;8.10;98.70;;;;;;5036326;28;20099;-77
2021/12/03 09:30:09;;;;;;;5.00;3.33;;;8.10;98.60;;;;;;5037639;28;20026;-77
2021/12/03 09:32:35;;;;;;;5.15;3.60;;;8.20;98.60;;;;;;5037407;28;20026;-76
2021/12/03 09:35:03;;;;;;;5.00;3.10;;;8.20;98.50;;;;;;5037376;28;20053;-76
2021/12/03 09:37:29;;;;;;;4.88;3.00;;;8.20;98.50;;;;;;5037343;28;20515;-77
2021/12/03 09:39:59;;;;;;;6.88;2.80;;;8.20;98.50;;;;;;5035841;28;20083;-77
2021/12/03 09:42:26;;;;;;;5.55;2.67;;;8.30;98.60;;;;;;5037032;28;20025;-77
2021/12/03 09:44:52;;;;;;;6.78;2.85;;;8.30;98.60;;;;;;5037515;28;20021;-78
2021/12/03 09:47:19;;;;;;;4.28;2.50;;;8.40;98.60;;;;;;5035927;28;20365;-77
2021/12/03 09:49:52;;;;;;;4.22;2.55;;;8.40;98.60;;;;;;5037117;28;20109;-77
2021/12/03 09:52:27;;;;;;;5.38;2.22;;;8.50;98.60;;;;;;5035963;28;20060;-77
2021/12/03 09:54:59;;;;;;;8.23;3.55;;;8.50;98.60;;;;;;5037389;28;20026;-77
2021/12/03 09:57:34;;;;;;;16.08;7.43;;;8.60;98.60;;;;;;5036989;28;20026;-77
2021/12/03 10:00:16;;;;;;;23.67;10.02;;;8.60;98.60;;;;;;5037340;28;20443;-77
2021/12/03 10:06:38;;;;;;;12.70;6.35;;;8.80;98.70;;;;;;5037420;28;20037;-77
2021/12/03 10:14:15;;;;;;;9.20;4.95;;;9.00;98.60;;;;;;5037113;28;20048;-78
2021/12/03 10:17:19;;;;;;;9.52;3.78;;;9.00;98.50;;;;;;5037071;28;20033;-78
2021/12/03 10:26:01;;;;;;;9.57;4.68;;;9.30;98.50;;;;;;5036896;28;20059;-78
2021/12/03 10:56:41;;;;;;;12.85;6.43;;;10.10;98.80;;;;;;5040655;28;20087;-78
2021/12/03 10:59:40;;;;;;;7.75;5.28;;;10.10;98.80;;;;;;5040028;28;20373;-78
2021/12/03 11:13:43;;;;;;;12.02;6.45;;;10.40;98.60;;;;;;5039792;28;20039;-77
2021/12/03 11:37:23;;;;;;;8.65;4.93;;;10.70;98.20;;;;;;5039431;28;20437;-76
2021/12/03 12:59:13;;;;;;;4.68;2.13;;;12.40;99.90;;;;;;5037749;28;20045;-77
2021/12/03 14:24:15;;;;;;;6.80;3.50;;;13.10;99.00;;;;;;5041097;28;20041;-76
2021/12/03 14:36:26;;;;;;;9.52;4.18;;;13.10;99.40;;;;;;5030718;28;20108;-76
2021/12/03 14:43:38;;;;;;;6.50;2.97;;;13.00;99.40;;;;;;5040306;28;20037;-76
2021/12/03 14:46:20;;;;;;;5.90;2.80;;;13.00;99.40;;;;;;5040643;28;20024;-76
2021/12/03 14:49:09;;;;;;;9.35;3.30;;;13.00;99.30;;;;;;5039291;28;20116;-76
2021/12/03 14:54:35;;;;;;;9.65;4.35;;;13.00;99.30;;;;;;5040410;28;20426;-77
2021/12/03 15:00:06;;;;;;;6.72;3.65;;;13.00;99.10;;;;;;5030391;28;20529;-77
2021/12/03 15:05:24;;;;;;;7.93;2.70;;;13.00;99.00;;;;;;5040215;28;20104;-76
2021/12/03 15:07:52;;;;;;;7.63;3.78;;;13.00;98.90;;;;;;5040187;28;20017;-77
2021/12/03 15:10:38;;;;;;;7.30;3.03;;;13.00;99.00;;;;;;5040131;28;20030;-77
2021/12/03 15:14:23;;;;;;;7.00;3.10;;;13.00;99.00;;;;;;5039081;28;20480;-76
2021/12/03 15:21:34;;;;;;;5.30;1.90;;;12.90;98.90;;;;;;5040106;28;20036;-78
2021/12/03 15:32:06;;;;;;;5.47;2.67;;;12.90;99.10;;;;;;5039557;28;20060;-78
2021/12/03 16:04:19;;;;;;;7.00;4.32;;;12.70;99.50;;;;;;5039214;28;20040;-79
2021/12/03 16:12:06;;;;;;;8.88;4.05;;;12.80;99.90;;;;;;5038500;28;20108;-78
2021/12/03 16:14:52;;;;;;;8.75;3.95;;;12.80;99.90;;;;;;5039322;28;20071;-79
2021/12/03 16:20:28;;;;;;;8.95;3.40;;;12.70;99.90;;;;;;5038993;28;20132;-80
2021/12/03 16:48:11;;;;;;;6.35;3.92;;;12.50;99.10;;;;;;5031715;28;20034;-79
2021/12/03 16:53:04;;;;;;;9.02;4.57;;;12.50;99.30;;;;;;5038153;28;20112;-79
2021/12/03 16:55:30;;;;;;;11.65;5.43;;;12.50;99.30;;;;;;5038048;28;20061;-78
2021/12/03 16:57:56;;;;;;;13.70;5.68;;;12.50;99.30;;;;;;5036650;28;20079;-78
2021/12/03 17:00:29;;;;;;;12.55;5.28;;;12.50;99.40;;;;;;5038295;28;20034;-78
2021/12/03 17:51:25;;;;;;;19.42;7.82;;;12.50;99.90;;;;;;5037302;28;20022;-80
2021/12/03 17:56:18;;;;;;;15.07;6.53;;;12.50;99.90;;;;;;5037229;28;20022;-79
2021/12/03 17:58:51;;;;;;;17.08;6.28;;;12.50;99.90;;;;;;5037024;28;20045;-79
2021/12/03 18:01:29;;;;;;;13.20;4.65;;;12.60;99.90;;;;;;5037411;28;20477;-78
2021/12/03 18:07:30;;;;;;;12.27;3.60;;;12.60;99.90;;;;;;5037540;28;20048;-79
2021/12/03 18:12:20;;;;;;;17.33;4.40;;;12.70;99.90;;;;;;5037267;28;20124;-77
2021/12/03 18:55:16;;;;;;;13.27;3.35;;;12.70;99.10;;;;;;5028529;28;20034;-77
2021/12/03 18:57:44;;;;;;;11.90;2.97;;;12.70;98.90;;;;;;5037874;28;20021;-77
2021/12/03 19:00:14;;;;;;;8.80;2.83;;;12.70;98.80;;;;;;5040437;28;20025;-78
2021/12/03 19:02:43;;;;;;;8.52;2.50;;;12.70;98.80;;;;;;5040252;28;20025;-77
2021/12/03 19:08:18;;;;;;;12.48;3.95;;;12.70;98.70;;;;;;5029312;28;20034;-77
2021/12/03 19:10:46;;;;;;;8.82;4.25;;;12.70;98.60;;;;;;5037831;28;20048;-78
2021/12/03 19:13:18;;;;;;;7.25;2.60;;;12.70;98.60;;;;;;5039906;28;20494;-78
2021/12/03 19:15:44;;;;;;;13.27;2.80;;;12.70;98.50;;;;;;5039978;28;20135;-77
2021/12/03 19:18:10;;;;;;;7.63;2.30;;;12.70;98.40;;;;;;5040001;28;20030;-76
2021/12/03 19:20:41;;;;;;;7.60;3.22;;;12.70;98.30;;;;;;5040037;28;20108;-77
2021/12/03 19:23:07;;;;;;;8.20;3.28;;;12.80;98.30;;;;;;5039676;28;20052;-79
2021/12/03 19:25:33;;;;;;;9.90;3.40;;;12.80;98.30;;;;;;5039946;28;20072;-76
2021/12/03 19:27:59;;;;;;;14.65;5.70;;;12.70;98.10;;;;;;5038287;28;20022;-77
2021/12/03 19:30:25;;;;;;;12.13;2.78;;;12.70;98.20;;;;;;5040148;28;20571;-77
2021/12/03 19:32:50;;;;;;;12.98;4.10;;;12.70;98.30;;;;;;5039620;28;20025;-77
2021/12/03 19:35:17;;;;;;;12.35;4.68;;;12.70;98.30;;;;;;5038431;28;20029;-78
2021/12/03 19:37:43;;;;;;;15.77;4.40;;;12.70;98.40;;;;;;5039434;28;20573;-78
2021/12/03 19:40:11;;;;;;;43.00;17.67;;;12.70;98.40;;;;;;5039763;28;20029;-77
2021/12/03 19:45:48;;;;;;;8.55;3.20;;;12.70;98.60;;;;;;5025230;28;20030;-78
2021/12/03 19:48:15;;;;;;;14.70;4.32;;;12.70;98.60;;;;;;5035065;28;20481;-78
2021/12/03 19:50:43;;;;;;;14.75;2.80;;;12.70;98.50;;;;;;5039661;28;20144;-77
2021/12/03 19:53:13;;;;;;;8.80;3.67;;;12.70;98.50;;;;;;5039380;28;20030;-77
2021/12/03 19:55:41;;;;;;;19.17;6.30;;;12.70;98.40;;;;;;5039169;28;20091;-77
2021/12/03 19:58:10;;;;;;;8.23;3.40;;;12.70;98.50;;;;;;5038668;28;20464;-77
2021/12/03 20:00:37;;;;;;;6.70;2.80;;;12.70;98.40;;;;;;5039357;28;20029;-79
2021/12/03 20:03:04;;;;;;;9.57;3.42;;;12.70;98.60;;;;;;5039187;28;20083;-79
2021/12/03 20:05:30;;;;;;;10.48;4.20;;;12.70;98.60;;;;;;5039234;28;20057;-79
2021/12/03 20:07:59;;;;;;;12.95;3.83;;;12.70;98.60;;;;;;5038063;28;20036;-80
2021/12/03 20:10:26;;;;;;;8.57;3.15;;;12.70;98.70;;;;;;5039123;28;20037;-78
2021/12/03 20:12:52;;;;;;;8.02;2.70;;;12.70;98.80;;;;;;5038945;28;20030;-77
2021/12/03 20:15:25;;;;;;;14.13;2.60;;;12.70;98.90;;;;;;5039038;28;20037;-79
2021/12/03 20:18:06;;;;;;;7.60;2.58;;;12.60;98.90;;;;;;5039031;28;20113;-77
2021/12/03 20:20:32;;;;;;;13.38;3.97;;;12.70;99.00;;;;;;5039036;28;20033;-79
2021/12/03 20:23:07;;;;;;;5.10;1.65;;;12.70;99.10;;;;;;5038556;28;20021;-78
2021/12/03 20:25:51;;;;;;;5.65;1.98;;;12.60;99.30;;;;;;5038664;28;20388;-78
2021/12/03 20:31:05;;;;;;;7.40;2.00;;;12.60;99.10;;;;;;5038883;28;20440;-77
2021/12/03 20:34:45;;;;;;;4.15;1.80;;;12.70;99.10;;;;;;5037173;28;20030;-77